Aeroporto :
LOGIN :

Iscrizione | Disclaimer

   EN    FR    IT 

 










Sommario :    VFR   VFR Marginale   IFR   IFR Intensivo   IFR Molto Intensivo
Visibilità : 
Base nubi : 
>= 8 km
>= 3000ft
5 / 8 km
1000 / 3000 ft
1500m / 5 km
500 / 1000 ft
800 / 1500m
200 / 500 ft
< 800m
< 200 ft
Simboli :   Temporali  Nebbia  Neve Forte  Precipitazioni Forti  Vento > 20 kt
SIGMETs :   Varie  Temporali  Ghiacco  Turbolenza  Onda orograficha  Ceneri Vulcaniche






- Altitudine del aeroporto : 628 ft
- Codice IATA : CMR


LFGA - Colmar-Houssen

ULTIMO METAR :
  • 211400Z AUTO 28004KT 230V340 9999 FEW041/// SCT049/// BKN056/// ///TCU 06/00 Q1019

METARs OBSOLETI :
  • 211330Z AUTO 36009KT 320V030 9999 -RA FEW018/// BKN046/// OVC054/// ///TCU 06/01 Q1019
  • 211300Z AUTO 04004KT 330V090 9999 FEW049/// SCT076/// ///CB 06/03 Q1019
  • 211230Z AUTO 07006KT 020V120 9999 FEW019/// SCT035/// BKN045/// ///TCU 04/02 Q1019
  • 211200Z AUTO 03013KT 360V060 9999 FEW016/// BKN039/// BKN047/// ///CB 05/01 Q1019
  • 211130Z AUTO 03007KT 340V050 9999 SCT040/// SCT049/// BKN064/// ///TCU 07/02 Q1019
  • 211100Z AUTO 05006KT 360V110 9999 FEW040/// SCT046/// BKN054/// ///TCU 08/02 Q1019
  • 211030Z AUTO 05007KT 020V110 9999 FEW017/// SCT052/// BKN076/// ///TCU 06/02 Q1019
  • 211000Z AUTO 27006KT 240V340 9999 FEW030/// BKN046/// BKN056/// ///CB 06/01 Q1019
  • 210930Z AUTO 36010KT 340V040 9999 SCT032/// SCT042/// BKN056/// ///CB 06/01 Q1019

TAF N/A



MetMap, La meteo Aeronautica in un colpo d'occhio ! - Copyright ORBIFLY Dicembre 2007 - Disclaimer

ORBIFLY MET'MAP TEAM :

Programmazione e sviluppo : Alexandra Zaïnal
Concezione : Baudouin d'Aumeries
Supporto tecnico e logistico : Manuel Goepfert
Aiuto : Marc-Olivier Méhu
Aiuto per la traduzione : Arnaldo La Scala




FONTI E CREDITI :

   NOAA